Time;durP1;ratioP1;P1;durP2;ratioP2;P2;SDS_P1;SDS_P2;PMS_P1;PMS_P2;Temp;Humidity;BMP_temperature;BMP_pressure;BME280_temperature;BME280_humidity;BME280_pressure;Samples;Min_cycle;Max_cycle;Signal;HPM_P1;HPM_P2
2023/01/15 00:01:55;;;;;;;6.30;4.18;;;4.80;99.90;;;;;;4955450;28;20165;-66
2023/01/15 00:04:22;;;;;;;8.43;5.50;;;4.80;99.90;;;;;;4952743;28;20074;-65
2023/01/15 00:06:49;;;;;;;11.48;4.10;;;4.80;99.90;;;;;;4953766;28;20071;-65
2023/01/15 00:09:16;;;;;;;9.85;4.20;;;4.80;99.90;;;;;;4948981;28;20089;-66
2023/01/15 00:11:43;;;;;;;9.13;4.10;;;4.80;99.90;;;;;;4950389;28;20051;-64
2023/01/15 00:14:11;;;;;;;7.38;4.72;;;4.80;99.90;;;;;;4951185;28;20051;-70
2023/01/15 00:16:39;;;;;;;8.43;4.63;;;4.80;99.90;;;;;;4952137;28;20145;-67
2023/01/15 00:19:09;;;;;;;13.60;5.07;;;4.80;99.90;;;;;;4952428;28;20058;-66
2023/01/15 00:21:36;;;;;;;8.48;4.82;;;4.80;99.90;;;;;;4946348;28;20205;-68
2023/01/15 00:29:35;;;;;;;8.90;4.65;;;4.80;99.90;;;;;;4964969;28;20062;-62
2023/01/15 00:32:06;;;;;;;7.95;4.97;;;4.80;99.90;;;;;;4951751;28;20137;-66
2023/01/15 00:34:33;;;;;;;8.25;4.05;;;4.80;99.90;;;;;;4952702;28;20063;-66
2023/01/15 00:37:00;;;;;;;6.50;4.10;;;4.80;99.90;;;;;;4973150;28;20131;-66
2023/01/15 00:39:28;;;;;;;8.35;4.03;;;4.80;99.90;;;;;;4972409;28;20146;-67
2023/01/15 00:41:55;;;;;;;8.30;4.32;;;4.70;99.90;;;;;;4948386;28;20533;-63
2023/01/15 00:44:22;;;;;;;9.85;5.25;;;4.70;99.90;;;;;;4950131;28;20070;-63
2023/01/15 00:46:50;;;;;;;6.95;5.00;;;4.70;99.90;;;;;;4955193;28;20053;-65
2023/01/15 00:49:19;;;;;;;10.02;4.47;;;4.70;99.90;;;;;;4948076;28;20370;-66
2023/01/15 00:51:48;;;;;;;9.55;3.90;;;4.70;99.90;;;;;;4953054;28;20051;-65
2023/01/15 00:54:16;;;;;;;5.43;4.32;;;4.70;99.90;;;;;;4952178;28;20052;-64
2023/01/15 00:56:43;;;;;;;6.65;4.68;;;4.70;99.90;;;;;;4948751;28;20531;-63
2023/01/15 00:59:10;;;;;;;12.15;5.30;;;4.70;99.90;;;;;;4947520;28;20047;-66
2023/01/15 01:01:37;;;;;;;7.45;5.18;;;4.70;99.90;;;;;;4952039;28;20735;-66
2023/01/15 01:04:04;;;;;;;8.63;4.82;;;4.70;99.90;;;;;;4954030;28;20134;-63
2023/01/15 01:06:33;;;;;;;9.75;5.45;;;4.70;99.90;;;;;;4965194;28;20067;-63
2023/01/15 01:09:01;;;;;;;12.10;5.70;;;4.70;99.90;;;;;;4954296;28;20047;-68
2023/01/15 01:11:32;;;;;;;9.63;4.47;;;4.70;99.90;;;;;;4968316;28;20047;-62
2023/01/15 01:14:01;;;;;;;8.65;4.78;;;4.70;99.90;;;;;;4968978;28;20038;-63
2023/01/15 01:16:36;;;;;;;7.43;3.83;;;4.70;99.90;;;;;;4946607;28;20047;-63
2023/01/15 01:19:16;;;;;;;7.93;4.28;;;4.70;99.90;;;;;;4949093;28;20051;-63
2023/01/15 01:21:44;;;;;;;4.70;4.28;;;4.70;99.90;;;;;;4954525;28;20054;-63
2023/01/15 01:24:13;;;;;;;7.32;6.10;;;4.80;99.90;;;;;;4963645;28;20043;-67
2023/01/15 01:26:42;;;;;;;10.27;4.95;;;4.80;99.90;;;;;;4947092;28;20053;-63
2023/01/15 01:29:20;;;;;;;5.97;4.40;;;4.80;99.90;;;;;;4945962;28;20078;-68
2023/01/15 01:31:49;;;;;;;9.57;5.25;;;4.70;99.90;;;;;;4956100;28;20070;-64
2023/01/15 01:34:18;;;;;;;5.40;4.72;;;4.80;99.90;;;;;;4948913;28;20055;-64
2023/01/15 01:36:44;;;;;;;9.32;5.10;;;4.80;99.90;;;;;;4953247;28;20296;-63
2023/01/15 01:39:15;;;;;;;8.80;4.90;;;4.90;99.90;;;;;;4953556;28;20058;-64
2023/01/15 01:41:42;;;;;;;;;;;4.80;99.90;;;;;;4952860;28;20081;-66
2023/01/15 01:44:31;;;;;;;8.02;5.75;;;4.90;99.90;;;;;;4954154;28;20250;-64
2023/01/15 01:47:06;;;;;;;8.85;5.53;;;4.90;99.90;;;;;;4964345;28;20162;-67
2023/01/15 01:49:35;;;;;;;6.53;4.65;;;4.90;99.90;;;;;;4952557;28;20129;-67
2023/01/15 01:52:07;;;;;;;11.10;5.00;;;4.90;99.90;;;;;;4957419;28;20138;-63
2023/01/15 01:54:36;;;;;;;6.30;4.43;;;4.90;99.90;;;;;;4968086;28;20050;-66
2023/01/15 01:57:05;;;;;;;7.03;4.28;;;5.00;99.90;;;;;;4951712;28;20051;-63
2023/01/15 01:59:32;;;;;;;6.03;4.60;;;5.00;99.90;;;;;;4960252;28;20127;-65
2023/01/15 02:01:59;;;;;;;6.70;4.00;;;5.00;99.90;;;;;;4960499;28;20089;-66
2023/01/15 02:04:29;;;;;;;4.20;3.80;;;5.00;99.90;;;;;;4945392;28;20153;-65
2023/01/15 02:06:59;;;;;;;7.10;4.07;;;5.00;99.90;;;;;;4967829;28;20063;-64
2023/01/15 02:09:26;;;;;;;6.38;5.88;;;5.00;99.90;;;;;;4949670;28;20130;-63
2023/01/15 02:12:00;;;;;;;4.50;3.80;;;5.10;99.90;;;;;;4950371;28;20065;-63
2023/01/15 02:14:41;;;;;;;5.65;3.92;;;5.10;99.90;;;;;;4953644;28;20049;-62
2023/01/15 02:17:24;;;;;;;6.03;3.80;;;5.10;99.90;;;;;;4958131;28;20113;-69
2023/01/15 02:20:09;;;;;;;5.85;3.45;;;5.10;99.90;;;;;;4946334;28;20100;-68
2023/01/15 02:22:57;;;;;;;5.07;3.38;;;5.10;99.90;;;;;;4948144;28;20122;-70
2023/01/15 02:25:53;;;;;;;4.55;3.75;;;5.20;99.90;;;;;;4965839;28;20062;-67
2023/01/15 02:28:45;;;;;;;7.20;3.60;;;5.20;99.90;;;;;;4944184;28;20102;-67
2023/01/15 02:31:37;;;;;;;6.35;3.67;;;5.20;99.90;;;;;;4944811;28;20118;-65
2023/01/15 02:34:13;;;;;;;5.82;3.42;;;5.20;99.90;;;;;;4955627;28;20449;-65
2023/01/15 02:36:46;;;;;;;4.03;3.63;;;5.20;99.90;;;;;;4965172;28;20053;-65
2023/01/15 02:39:23;;;;;;;4.30;3.90;;;5.20;99.90;;;;;;4962003;28;20700;-65
2023/01/15 02:41:54;;;;;;;4.97;3.85;;;5.30;99.90;;;;;;4944217;28;20115;-65
2023/01/15 02:44:26;;;;;;;5.88;3.10;;;5.30;99.90;;;;;;4943359;28;20075;-67
2023/01/15 02:46:57;;;;;;;3.65;2.85;;;5.30;99.90;;;;;;4967087;28;20062;-65
2023/01/15 02:49:25;;;;;;;5.10;2.95;;;5.30;99.90;;;;;;4946272;28;20058;-68
2023/01/15 02:52:05;;;;;;;7.47;2.72;;;5.40;99.90;;;;;;4947221;28;20050;-65
2023/01/15 02:54:43;;;;;;;4.20;2.47;;;5.40;99.90;;;;;;4949213;28;20638;-69
2023/01/15 02:57:11;;;;;;;3.70;3.10;;;5.40;99.90;;;;;;4959918;28;20082;-70
2023/01/15 02:59:42;;;;;;;4.05;3.45;;;5.40;99.90;;;;;;4947468;28;20054;-65
2023/01/15 03:02:19;;;;;;;4.10;3.45;;;5.40;99.90;;;;;;4957325;28;20111;-70
2023/01/15 03:04:52;;;;;;;5.07;3.47;;;5.40;99.90;;;;;;4947440;28;20059;-71
2023/01/15 03:07:35;;;;;;;7.53;3.42;;;5.50;99.90;;;;;;4948581;28;20063;-65
2023/01/15 03:10:04;;;;;;;7.05;2.95;;;5.50;99.90;;;;;;4948721;28;20051;-65
2023/01/15 03:12:31;;;;;;;5.90;3.35;;;5.50;99.90;;;;;;4947572;28;20073;-70
2023/01/15 03:15:01;;;;;;;7.10;4.55;;;5.50;99.90;;;;;;4942508;28;20071;-66
2023/01/15 03:17:42;;;;;;;4.43;2.95;;;5.50;99.90;;;;;;4946376;28;20166;-67
2023/01/15 03:20:30;;;;;;;5.38;3.30;;;5.50;99.90;;;;;;4949821;28;20048;-67
2023/01/15 03:23:04;;;;;;;2.33;2.03;;;5.50;99.90;;;;;;4944860;28;20409;-66
2023/01/15 03:25:35;;;;;;;3.92;3.50;;;5.60;99.90;;;;;;4942434;28;20078;-70
2023/01/15 03:28:05;;;;;;;3.00;2.10;;;5.60;99.90;;;;;;4962516;28;20528;-67
2023/01/15 03:30:33;;;;;;;7.30;3.45;;;5.60;99.90;;;;;;4944330;28;20425;-68
2023/01/15 03:33:02;;;;;;;2.77;2.13;;;5.60;99.90;;;;;;4958888;28;20074;-65
2023/01/15 03:35:45;;;;;;;3.33;2.33;;;5.70;99.90;;;;;;4964368;28;20043;-67
2023/01/15 03:38:28;;;;;;;2.38;2.00;;;5.70;99.90;;;;;;4944741;28;20089;-71
2023/01/15 03:41:13;;;;;;;5.50;3.22;;;5.70;99.90;;;;;;4962002;28;20054;-69
2023/01/15 03:44:03;;;;;;;5.20;2.42;;;5.70;99.90;;;;;;4967506;28;20051;-66
2023/01/15 03:46:56;;;;;;;2.50;2.10;;;5.70;99.90;;;;;;4968006;28;20055;-66
2023/01/15 03:49:58;;;;;;;3.75;2.00;;;5.70;99.90;;;;;;4954546;28;20437;-70
2023/01/15 03:52:47;;;;;;;3.65;1.88;;;5.70;99.90;;;;;;4966718;28;20051;-72
2023/01/15 03:55:20;;;;;;;4.55;2.08;;;5.80;99.90;;;;;;4965536;28;20103;-68
2023/01/15 03:58:10;;;;;;;3.63;2.00;;;5.80;99.90;;;;;;4962789;28;20733;-68
2023/01/15 04:00:49;;;;;;;2.92;1.70;;;5.80;99.90;;;;;;4962194;28;20054;-69
2023/01/15 04:03:21;;;;;;;3.65;1.85;;;5.90;99.90;;;;;;4969437;28;20410;-66
2023/01/15 04:05:50;;;;;;;3.15;1.63;;;5.90;99.90;;;;;;4952196;28;20055;-66
2023/01/15 04:08:19;;;;;;;4.82;1.85;;;5.90;99.90;;;;;;4950121;28;20138;-65
2023/01/15 04:10:57;;;;;;;6.82;2.08;;;5.90;99.90;;;;;;4970496;28;20070;-66
2023/01/15 04:13:28;;;;;;;5.32;1.60;;;5.90;99.90;;;;;;4947718;28;20054;-66
2023/01/15 04:15:57;;;;;;;4.15;1.38;;;5.90;99.90;;;;;;4956653;28;20133;-65
2023/01/15 04:18:25;;;;;;;6.10;2.15;;;6.00;99.90;;;;;;4968325;28;20142;-66
2023/01/15 04:20:53;;;;;;;5.13;1.65;;;6.00;99.90;;;;;;4953210;28;20110;-66
2023/01/15 04:23:21;;;;;;;1.85;1.50;;;6.00;99.90;;;;;;4958357;28;20513;-65
2023/01/15 04:25:48;;;;;;;3.40;1.73;;;6.00;99.90;;;;;;4948567;28;20048;-66
2023/01/15 04:28:15;;;;;;;3.58;2.08;;;6.00;99.90;;;;;;4954850;28;20055;-68
2023/01/15 04:30:42;;;;;;;2.08;1.52;;;6.00;99.90;;;;;;4959385;28;20106;-64
2023/01/15 04:33:09;;;;;;;8.55;2.70;;;6.00;99.90;;;;;;4950198;28;20047;-65
2023/01/15 04:35:38;;;;;;;5.65;2.63;;;6.10;99.90;;;;;;4948920;28;20123;-70
2023/01/15 04:38:04;;;;;;;3.38;2.22;;;6.10;99.90;;;;;;4948666;28;20482;-65
2023/01/15 04:46:02;;;;;;;8.15;3.50;;;6.10;99.90;;;;;;4956048;28;20380;-65
2023/01/15 04:48:30;;;;;;;10.65;2.92;;;6.10;99.90;;;;;;4954212;28;20508;-65
2023/01/15 04:51:02;;;;;;;5.85;2.60;;;6.10;99.90;;;;;;4953874;28;20054;-68
2023/01/15 04:53:29;;;;;;;6.13;2.35;;;6.10;99.90;;;;;;4953104;28;20363;-68
2023/01/15 04:56:00;;;;;;;7.18;2.72;;;6.10;99.90;;;;;;4953615;28;20051;-67
2023/01/15 04:58:28;;;;;;;6.10;3.50;;;6.10;99.90;;;;;;4948587;28;20043;-67
2023/01/15 05:00:55;;;;;;;13.23;3.05;;;6.20;99.90;;;;;;4955889;28;20062;-66
2023/01/15 05:03:22;;;;;;;3.80;1.80;;;6.20;99.90;;;;;;4955206;28;20481;-66
2023/01/15 05:05:49;;;;;;;7.93;2.95;;;6.20;99.90;;;;;;4948038;28;20059;-67
2023/01/15 05:08:16;;;;;;;6.45;1.83;;;6.20;99.90;;;;;;4953293;28;20122;-66
2023/01/15 05:10:43;;;;;;;6.97;3.03;;;6.20;99.90;;;;;;4955454;28;20114;-70
2023/01/15 05:13:10;;;;;;;4.53;2.08;;;6.20;99.90;;;;;;4951171;28;20109;-66
2023/01/15 05:15:39;;;;;;;6.05;1.73;;;6.20;99.90;;;;;;4953843;28;20471;-68
2023/01/15 05:18:06;;;;;;;3.13;1.85;;;6.20;99.90;;;;;;4952470;28;20047;-67
2023/01/15 05:20:36;;;;;;;4.25;1.70;;;6.30;99.90;;;;;;4950883;28;20059;-66
2023/01/15 05:23:03;;;;;;;3.67;1.58;;;6.30;99.90;;;;;;4950754;28;20476;-65
2023/01/15 05:25:30;;;;;;;3.85;1.30;;;6.30;99.90;;;;;;4949712;28;20051;-68
2023/01/15 05:27:57;;;;;;;1.92;1.48;;;6.30;99.90;;;;;;4953485;28;20074;-70
2023/01/15 05:30:24;;;;;;;9.05;1.80;;;6.30;99.90;;;;;;4952784;28;20046;-65
2023/01/15 05:32:51;;;;;;;5.20;1.33;;;6.30;99.90;;;;;;4949787;28;20409;-65
2023/01/15 05:35:17;;;;;;;5.35;1.40;;;6.30;99.90;;;;;;4949070;28;20039;-66
2023/01/15 05:37:44;;;;;;;5.18;2.33;;;6.30;99.90;;;;;;4944872;28;20053;-65
2023/01/15 05:40:11;;;;;;;3.50;1.50;;;6.40;99.90;;;;;;4950631;28;20086;-66
2023/01/15 05:42:38;;;;;;;4.78;1.05;;;6.30;99.90;;;;;;4953214;28;20106;-66
2023/01/15 05:45:06;;;;;;;5.75;1.30;;;6.30;99.90;;;;;;4948045;28;20039;-65
2023/01/15 05:47:34;;;;;;;6.65;1.50;;;6.30;99.90;;;;;;4947504;28;20059;-70
2023/01/15 05:50:01;;;;;;;3.85;0.88;;;6.30;99.90;;;;;;4950132;28;20061;-66
2023/01/15 05:52:28;;;;;;;4.05;1.35;;;6.30;99.90;;;;;;4954505;28;20071;-69
2023/01/15 05:54:55;;;;;;;4.70;1.52;;;6.20;99.90;;;;;;4953766;28;20580;-67
2023/01/15 05:57:21;;;;;;;5.82;1.35;;;6.20;99.90;;;;;;4949562;28;20047;-66
2023/01/15 05:59:49;;;;;;;5.68;2.53;;;6.20;99.90;;;;;;4953514;28;20137;-69
2023/01/15 06:02:16;;;;;;;3.80;1.10;;;6.10;99.90;;;;;;4950820;28;20449;-67
2023/01/15 06:04:43;;;;;;;3.67;0.70;;;5.90;99.90;;;;;;4950119;28;20109;-67
2023/01/15 06:07:09;;;;;;;2.92;0.77;;;5.70;99.90;;;;;;4952753;28;20059;-70
2023/01/15 06:09:36;;;;;;;2.83;0.82;;;5.60;99.90;;;;;;4950805;28;20131;-69
2023/01/15 06:12:04;;;;;;;3.33;1.63;;;5.50;99.90;;;;;;4951339;28;20139;-66
2023/01/15 06:14:31;;;;;;;1.75;0.55;;;5.40;99.90;;;;;;4947915;28;20137;-65
2023/01/15 06:16:58;;;;;;;2.10;0.73;;;5.40;99.90;;;;;;4942008;28;20053;-68
2023/01/15 06:19:24;;;;;;;2.13;0.50;;;5.40;99.90;;;;;;4951505;28;20437;-66
2023/01/15 06:21:51;;;;;;;2.40;0.52;;;5.40;99.90;;;;;;4949444;28;20761;-66
2023/01/15 06:24:19;;;;;;;1.23;0.45;;;5.40;99.90;;;;;;4950163;28;20101;-66
2023/01/15 06:26:46;;;;;;;0.70;0.25;;;5.30;99.90;;;;;;4946065;28;20070;-68
2023/01/15 06:29:17;;;;;;;1.80;0.60;;;5.30;99.90;;;;;;4948223;28;20097;-66
2023/01/15 06:31:44;;;;;;;5.63;1.33;;;5.30;99.90;;;;;;4944996;28;20555;-71
2023/01/15 06:34:11;;;;;;;1.85;0.70;;;5.40;99.90;;;;;;4937945;28;20055;-68
2023/01/15 06:36:38;;;;;;;1.23;0.60;;;5.40;99.90;;;;;;4945057;28;20043;-70
2023/01/15 06:39:04;;;;;;;5.93;0.63;;;5.40;99.90;;;;;;4947597;28;20087;-69
2023/01/15 06:47:22;;;;;;;5.05;1.30;;;5.40;99.90;;;;;;4949321;28;20051;-66
2023/01/15 06:49:55;;;;;;;4.93;1.55;;;5.40;99.90;;;;;;4944313;28;20130;-67
2023/01/15 06:52:24;;;;;;;3.03;1.17;;;5.40;99.90;;;;;;4948550;28;20056;-67
2023/01/15 06:54:51;;;;;;;4.47;0.80;;;5.40;99.90;;;;;;4950252;28;20437;-68
2023/01/15 06:57:18;;;;;;;4.80;0.73;;;5.40;99.90;;;;;;4947702;28;20047;-67
2023/01/15 06:59:46;;;;;;;2.25;0.43;;;5.40;99.90;;;;;;4947732;28;20054;-66
2023/01/15 07:02:12;;;;;;;0.65;0.52;;;5.30;99.90;;;;;;4949436;28;20046;-67
2023/01/15 07:04:39;;;;;;;1.52;0.80;;;5.30;99.90;;;;;;4944152;28;20047;-66
2023/01/15 07:07:06;;;;;;;2.67;0.98;;;5.30;99.90;;;;;;4943574;28;20529;-66
2023/01/15 07:09:33;;;;;;;2.55;1.05;;;5.20;99.90;;;;;;4944813;28;20157;-67
2023/01/15 07:12:00;;;;;;;3.47;0.55;;;5.20;99.90;;;;;;4948297;28;21092;-66
2023/01/15 07:14:27;;;;;;;1.10;0.40;;;5.20;99.90;;;;;;4949289;28;20078;-67
2023/01/15 07:16:54;;;;;;;2.75;0.40;;;5.20;99.90;;;;;;4944582;28;20058;-67
2023/01/15 07:19:21;;;;;;;1.45;0.35;;;5.20;99.90;;;;;;4947386;28;20480;-68
2023/01/15 07:21:48;;;;;;;1.48;0.60;;;5.20;99.90;;;;;;4944573;28;20620;-69
2023/01/15 07:24:17;;;;;;;3.92;0.63;;;5.10;99.90;;;;;;4944985;28;20051;-67
2023/01/15 07:26:44;;;;;;;1.30;0.75;;;5.20;99.90;;;;;;4946122;28;20051;-67
2023/01/15 07:29:12;;;;;;;1.75;0.50;;;5.10;99.90;;;;;;4949040;28;20047;-66
2023/01/15 07:31:40;;;;;;;2.78;0.20;;;5.10;99.90;;;;;;4945692;28;20051;-70
2023/01/15 07:34:07;;;;;;;2.47;0.43;;;5.10;99.90;;;;;;4946235;28;20732;-67
2023/01/15 07:36:34;;;;;;;0.88;0.50;;;5.10;99.90;;;;;;4941653;28;20055;-66
2023/01/15 07:39:06;;;;;;;5.00;0.80;;;5.10;99.90;;;;;;4945584;28;20117;-68
2023/01/15 07:50:15;;;;;;;2.58;0.70;;;5.10;99.90;;;;;;4944278;28;20383;-66
2023/01/15 07:52:42;;;;;;;2.45;1.02;;;5.10;99.90;;;;;;4943549;28;20059;-66
2023/01/15 07:55:11;;;;;;;5.32;0.88;;;5.10;99.90;;;;;;4946132;28;20045;-67
2023/01/15 07:57:42;;;;;;;5.47;1.10;;;5.10;99.90;;;;;;4944197;28;20126;-68
2023/01/15 08:00:14;;;;;;;4.38;1.38;;;5.10;99.90;;;;;;4946651;28;20151;-67
2023/01/15 08:02:41;;;;;;;3.80;0.80;;;5.10;99.90;;;;;;4949706;28;20769;-65
2023/01/15 08:05:10;;;;;;;3.53;1.33;;;5.10;99.90;;;;;;4949158;28;20145;-66
2023/01/15 08:07:38;;;;;;;3.00;0.75;;;5.10;99.90;;;;;;4940300;28;20069;-68
2023/01/15 08:10:06;;;;;;;3.03;0.82;;;5.20;99.90;;;;;;4948209;28;20907;-69
2023/01/15 08:15:19;;;;;;;5.25;1.02;;;5.10;99.90;;;;;;4946818;28;20078;-67
2023/01/15 08:17:48;;;;;;;4.70;1.42;;;5.10;99.90;;;;;;4946498;28;20063;-66
2023/01/15 08:20:18;;;;;;;9.15;2.40;;;5.10;99.90;;;;;;4943603;28;20082;-64
2023/01/15 08:22:45;;;;;;;2.58;1.20;;;5.10;99.90;;;;;;4949587;28;20065;-68
2023/01/15 08:25:16;;;;;;;4.65;1.63;;;5.10;99.90;;;;;;4948766;28;20047;-65
2023/01/15 08:27:43;;;;;;;8.40;1.45;;;5.20;99.90;;;;;;4950893;28;20066;-65
2023/01/15 08:30:14;;;;;;;5.53;2.03;;;5.20;99.90;;;;;;4951585;28;20422;-65
2023/01/15 08:32:41;;;;;;;8.60;2.10;;;5.20;99.90;;;;;;4954878;28;20525;-68
2023/01/15 08:35:09;;;;;;;3.58;1.27;;;5.20;99.90;;;;;;4953237;28;20047;-64
2023/01/15 08:37:36;;;;;;;4.38;1.25;;;5.20;99.90;;;;;;4954715;28;20613;-68
2023/01/15 08:40:03;;;;;;;5.97;1.40;;;5.20;99.90;;;;;;4947841;28;20047;-69
2023/01/15 08:42:30;;;;;;;3.75;1.15;;;5.20;99.90;;;;;;4952479;28;20047;-67
2023/01/15 08:44:57;;;;;;;7.25;1.77;;;5.20;99.90;;;;;;4940748;28;20047;-64
2023/01/15 08:47:24;;;;;;;4.45;1.40;;;5.20;99.90;;;;;;4952950;28;20157;-66
2023/01/15 08:49:51;;;;;;;8.25;1.80;;;5.20;99.90;;;;;;4945139;28;20053;-64
2023/01/15 08:52:17;;;;;;;11.75;4.05;;;5.30;99.90;;;;;;4950358;28;20122;-65
2023/01/15 08:54:44;;;;;;;8.10;2.13;;;5.30;99.90;;;;;;4951486;28;20061;-67
2023/01/15 08:57:12;;;;;;;8.02;1.70;;;5.30;99.90;;;;;;4950117;28;20123;-66
2023/01/15 08:59:42;;;;;;;7.82;1.95;;;5.30;99.90;;;;;;4960347;28;20557;-66
2023/01/15 09:02:13;;;;;;;10.75;2.67;;;5.30;99.90;;;;;;4953408;28;20047;-66
2023/01/15 09:04:40;;;;;;;6.65;1.95;;;5.30;99.90;;;;;;4956988;28;20465;-65
2023/01/15 09:07:07;;;;;;;11.85;2.53;;;5.30;99.90;;;;;;4952412;28;20460;-64
2023/01/15 09:09:34;;;;;;;10.77;3.60;;;5.30;99.90;;;;;;4949531;28;20051;-66
2023/01/15 09:12:01;;;;;;;12.30;3.25;;;5.30;99.90;;;;;;4949271;28;20055;-68
2023/01/15 09:14:28;;;;;;;13.13;2.35;;;5.30;99.90;;;;;;4955212;28;20063;-65
2023/01/15 09:17:15;;;;;;;8.45;2.67;;;5.30;99.90;;;;;;4952403;28;20059;-65
2023/01/15 09:19:42;;;;;;;14.15;2.88;;;5.30;99.90;;;;;;4950600;28;20412;-66
2023/01/15 09:22:09;;;;;;;9.10;2.20;;;5.40;99.90;;;;;;4953021;28;20138;-68
2023/01/15 09:24:36;;;;;;;8.27;1.80;;;5.40;99.90;;;;;;4944495;28;20407;-64
2023/01/15 09:27:03;;;;;;;5.95;2.03;;;5.40;99.90;;;;;;4953122;28;20150;-64
2023/01/15 09:29:29;;;;;;;10.80;3.03;;;5.40;99.90;;;;;;4947061;28;20129;-65
2023/01/15 09:31:56;;;;;;;7.47;3.40;;;5.40;99.90;;;;;;4950202;28;20065;-65
2023/01/15 09:34:23;;;;;;;7.25;4.07;;;5.30;99.90;;;;;;4946827;28;20478;-65
2023/01/15 09:36:50;;;;;;;9.48;2.85;;;5.40;99.90;;;;;;4950508;28;20515;-65
2023/01/15 09:39:17;;;;;;;6.32;2.63;;;5.30;99.90;;;;;;4948256;28;20158;-66
2023/01/15 09:42:09;;;;;;;12.13;2.67;;;5.30;99.90;;;;;;4947594;28;20122;-65
2023/01/15 09:45:13;;;;;;;12.88;3.30;;;5.30;99.90;;;;;;4951064;28;20051;-65
2023/01/15 09:48:11;;;;;;;9.35;1.83;;;5.30;99.90;;;;;;4945002;28;20065;-68
2023/01/15 09:50:51;;;;;;;11.02;2.70;;;5.30;99.90;;;;;;4951396;28;20138;-67
2023/01/15 09:53:21;;;;;;;12.95;1.83;;;5.30;99.90;;;;;;4949252;28;20049;-65
2023/01/15 09:55:49;;;;;;;10.13;2.40;;;5.30;99.90;;;;;;4949359;28;20062;-65
2023/01/15 09:58:20;;;;;;;11.68;3.63;;;5.30;99.90;;;;;;4947008;28;20372;-68
2023/01/15 10:00:47;;;;;;;;;;;5.30;99.90;;;;;;4931203;28;20570;-66
2023/01/15 10:03:27;;;;;;;11.93;3.45;;;5.30;99.90;;;;;;4943225;28;19929;-65
2023/01/15 10:06:20;;;;;;;13.40;3.10;;;5.30;99.90;;;;;;4939345;28;20147;-65
2023/01/15 10:08:49;;;;;;;9.85;4.03;;;5.30;99.90;;;;;;4935722;28;20051;-65
2023/01/15 10:11:16;;;;;;;12.70;3.58;;;5.30;99.90;;;;;;4941678;28;20056;-65
2023/01/15 10:14:07;;;;;;;23.40;3.30;;;5.30;99.90;;;;;;4945392;28;20119;-64
2023/01/15 10:16:34;;;;;;;12.85;2.92;;;5.40;99.90;;;;;;4936155;28;21653;-68
2023/01/15 10:19:02;;;;;;;16.75;3.15;;;5.40;99.90;;;;;;4941229;28;20040;-64
2023/01/15 10:21:37;;;;;;;9.93;3.58;;;5.40;99.90;;;;;;4943267;28;20047;-67
2023/01/15 10:24:18;;;;;;;12.77;3.08;;;5.40;99.90;;;;;;4954417;28;20109;-64
2023/01/15 10:26:58;;;;;;;17.52;3.38;;;5.40;99.90;;;;;;4952177;28;20145;-64
2023/01/15 10:29:53;;;;;;;10.10;3.00;;;5.40;99.90;;;;;;4953574;28;20138;-68
2023/01/15 10:32:51;;;;;;;17.45;4.35;;;5.40;99.90;;;;;;4940610;28;20047;-65
2023/01/15 10:35:53;;;;;;;14.23;5.25;;;5.50;99.90;;;;;;4953884;28;20106;-65
2023/01/15 10:38:26;;;;;;;15.18;4.47;;;5.40;99.90;;;;;;4950223;28;20047;-67
2023/01/15 10:41:27;;;;;;;14.15;2.90;;;5.40;99.90;;;;;;4955079;28;20050;-64
2023/01/15 10:44:39;;;;;;;9.88;2.70;;;5.40;99.90;;;;;;4949638;28;20125;-64
2023/01/15 10:47:12;;;;;;;25.27;4.10;;;5.40;99.90;;;;;;4949112;28;20672;-68
2023/01/15 10:49:41;;;;;;;10.45;3.33;;;5.40;99.90;;;;;;4947667;28;20047;-65
2023/01/15 10:52:30;;;;;;;12.02;2.40;;;5.30;99.90;;;;;;4948900;28;20134;-66
2023/01/15 10:55:13;;;;;;;15.98;3.15;;;5.30;99.90;;;;;;4952285;28;20070;-64
2023/01/15 10:57:47;;;;;;;11.07;3.28;;;5.40;99.90;;;;;;4948659;28;20154;-65
2023/01/15 11:00:19;;;;;;;11.60;3.00;;;5.30;99.90;;;;;;4947377;28;20039;-64
2023/01/15 11:02:58;;;;;;;13.93;3.65;;;5.30;99.90;;;;;;4948190;28;20486;-65
2023/01/15 11:05:26;;;;;;;18.63;4.15;;;5.40;99.90;;;;;;4938184;28;20106;-66
2023/01/15 11:07:53;;;;;;;17.33;3.30;;;5.40;99.90;;;;;;4945212;28;20165;-67
2023/01/15 11:10:40;;;;;;;8.68;3.55;;;5.40;99.90;;;;;;4945900;28;20051;-65
2023/01/15 11:21:53;;;;;;;17.08;3.80;;;5.40;99.90;;;;;;4959765;28;20119;-65
2023/01/15 11:24:20;;;;;;;7.78;2.65;;;5.40;99.90;;;;;;4949430;28;20050;-66
2023/01/15 11:26:52;;;;;;;16.55;3.38;;;5.50;99.90;;;;;;4947891;28;20062;-65
2023/01/15 11:29:35;;;;;;;17.10;3.60;;;5.50;99.90;;;;;;4949626;28;20130;-71
2023/01/15 11:32:03;;;;;;;14.02;3.15;;;5.50;99.90;;;;;;4946122;28;20057;-65
2023/01/15 11:34:30;;;;;;;11.85;5.00;;;5.60;99.90;;;;;;4947058;28;20043;-67
2023/01/15 11:37:06;;;;;;;13.68;3.92;;;5.60;99.90;;;;;;4943099;28;20393;-65
2023/01/15 11:39:33;;;;;;;15.43;3.35;;;5.60;99.90;;;;;;4944234;28;20105;-66
2023/01/15 11:50:54;;;;;;;14.73;2.05;;;5.60;99.90;;;;;;4947103;28;20043;-69
2023/01/15 11:53:25;;;;;;;14.77;3.35;;;5.60;99.90;;;;;;4945477;28;20134;-66
2023/01/15 11:56:05;;;;;;;8.65;3.05;;;5.60;99.90;;;;;;4945114;28;20142;-64
2023/01/15 11:58:54;;;;;;;12.25;2.03;;;5.60;99.90;;;;;;4950982;28;20094;-65
2023/01/15 12:01:29;;;;;;;16.23;3.80;;;5.60;99.90;;;;;;4948212;28;20047;-65
2023/01/15 12:03:57;;;;;;;6.82;2.20;;;5.60;99.90;;;;;;4947809;28;20053;-65
2023/01/15 12:06:26;;;;;;;7.90;2.70;;;5.60;99.90;;;;;;4950122;28;20062;-65
2023/01/15 12:09:18;;;;;;;12.77;2.50;;;5.60;99.90;;;;;;4958895;28;20429;-66
2023/01/15 12:12:07;;;;;;;14.18;2.15;;;5.60;99.90;;;;;;4947233;28;20055;-67
2023/01/15 12:14:55;;;;;;;11.60;2.33;;;5.60;99.90;;;;;;4953369;28;20504;-68
2023/01/15 12:17:49;;;;;;;7.38;2.00;;;5.60;99.90;;;;;;4957492;28;20475;-65
2023/01/15 12:20:33;;;;;;;12.45;2.85;;;5.60;99.90;;;;;;4962490;28;20055;-64
2023/01/15 12:23:38;;;;;;;6.97;1.83;;;5.60;99.90;;;;;;4948981;28;20061;-68
2023/01/15 12:26:25;;;;;;;6.90;1.70;;;5.60;99.90;;;;;;4950095;28;20047;-69
2023/01/15 12:29:23;;;;;;;10.88;1.75;;;5.60;99.90;;;;;;4954560;28;20059;-65
2023/01/15 12:31:57;;;;;;;4.10;1.50;;;5.50;99.90;;;;;;4945879;28;20062;-65
2023/01/15 12:34:50;;;;;;;11.85;2.10;;;5.50;99.90;;;;;;4951649;28;20055;-66
2023/01/15 12:37:25;;;;;;;9.90;3.13;;;5.50;99.90;;;;;;4956229;28;20137;-65
2023/01/15 12:40:18;;;;;;;9.07;2.80;;;5.40;99.90;;;;;;4945054;28;20050;-66
2023/01/15 12:45:40;;;;;;;3.17;1.70;;;5.40;99.90;;;;;;4949429;28;20055;-66
2023/01/15 12:48:16;;;;;;;3.53;1.42;;;5.30;99.90;;;;;;4952066;28;20484;-69
2023/01/15 12:50:48;;;;;;;7.88;1.63;;;5.30;99.90;;;;;;4951634;28;20113;-65
2023/01/15 12:53:26;;;;;;;7.55;1.85;;;5.30;99.90;;;;;;4962269;28;20141;-69
2023/01/15 12:56:16;;;;;;;7.75;2.13;;;5.30;99.90;;;;;;4941178;28;20054;-65
2023/01/15 12:59:09;;;;;;;9.50;3.40;;;5.30;99.90;;;;;;4950512;28;20043;-68
2023/01/15 13:02:14;;;;;;;10.13;2.22;;;5.30;99.90;;;;;;4947250;28;20055;-68
2023/01/15 13:05:12;;;;;;;10.18;2.13;;;5.30;99.90;;;;;;4950876;28;20379;-66
2023/01/15 13:07:44;;;;;;;6.55;2.20;;;5.30;99.90;;;;;;4950876;28;20069;-65
2023/01/15 13:10:20;;;;;;;7.25;1.90;;;5.30;99.90;;;;;;4947564;28;20139;-69
2023/01/15 13:12:47;;;;;;;10.15;2.72;;;5.30;99.90;;;;;;4949266;28;20165;-67
2023/01/15 13:15:16;;;;;;;9.07;2.22;;;5.30;99.90;;;;;;4947450;28;20044;-69
2023/01/15 13:17:55;;;;;;;6.40;1.55;;;5.30;99.90;;;;;;4950810;28;20138;-65
2023/01/15 13:20:35;;;;;;;4.07;1.52;;;5.20;99.90;;;;;;4952726;28;20134;-66
2023/01/15 13:23:25;;;;;;;2.35;0.82;;;5.20;99.90;;;;;;4949085;28;20043;-66
2023/01/15 13:25:52;;;;;;;1.98;0.70;;;5.00;99.90;;;;;;4945825;28;20820;-65
2023/01/15 13:28:40;;;;;;;5.85;1.40;;;5.00;99.90;;;;;;4951069;28;20047;-64
2023/01/15 13:31:28;;;;;;;5.80;0.80;;;4.90;99.90;;;;;;4950646;28;20082;-65
2023/01/15 13:33:59;;;;;;;1.75;0.80;;;4.80;99.90;;;;;;4954183;28;20413;-66
2023/01/15 13:36:39;;;;;;;6.35;1.00;;;4.70;99.90;;;;;;4967063;28;20089;-67
2023/01/15 13:39:10;;;;;;;2.10;0.55;;;4.70;99.90;;;;;;4950600;28;20438;-67
2023/01/15 13:44:26;;;;;;;6.80;1.52;;;4.70;99.90;;;;;;4951515;28;20129;-65
2023/01/15 13:47:03;;;;;;;5.63;1.35;;;4.80;99.90;;;;;;4954287;28;20133;-67
2023/01/15 13:49:47;;;;;;;6.07;0.88;;;4.90;99.90;;;;;;4951750;28;20141;-66
2023/01/15 13:52:22;;;;;;;2.25;0.52;;;4.90;99.90;;;;;;4950665;28;20085;-65
2023/01/15 13:54:50;;;;;;;3.50;0.75;;;4.80;99.90;;;;;;4953745;28;20074;-67
2023/01/15 13:57:30;;;;;;;4.65;0.70;;;4.80;99.90;;;;;;4958266;28;20456;-65
2023/01/15 13:59:58;;;;;;;8.05;0.77;;;4.80;99.90;;;;;;4948454;28;20141;-65
2023/01/15 14:02:31;;;;;;;2.63;1.13;;;4.70;99.90;;;;;;4953849;28;20075;-67
2023/01/15 14:04:58;;;;;;;1.38;0.50;;;4.70;99.90;;;;;;4947734;28;20047;-70
2023/01/15 14:07:35;;;;;;;2.20;0.60;;;4.60;99.90;;;;;;4956923;28;20051;-65
2023/01/15 14:10:16;;;;;;;1.83;0.65;;;4.60;99.90;;;;;;4949081;28;20106;-66
2023/01/15 14:13:18;;;;;;;2.53;0.90;;;4.50;99.90;;;;;;4950169;28;20155;-65
2023/01/15 14:15:51;;;;;;;3.35;0.90;;;4.50;99.90;;;;;;4879575;28;20051;-67
2023/01/15 14:18:59;;;;;;;2.10;0.57;;;4.40;99.90;;;;;;4951098;28;20812;-66